Time,TemperatureF,DewpointF,PressureIn,WindDirection,WindDirectionDegrees,WindSpeedMPH,WindSpeedGustMPH,Humidity,HourlyPrecipIn,Conditions,Clouds,dailyrainin,SolarRadiationWatts/m^2,SoftwareType,DateUTC
2013-02-04 00:12:00,32.5,24.0,29.96,WSW,245,0.0,1.0,71,0.00,,,0.07,0,weatherlink.com 1.10,2013-02-03 23:12:00,
2013-02-04 00:27:00,31.8,24.0,29.96,WSW,246,0.0,0.0,72,0.00,,,0.07,0,weatherlink.com 1.10,2013-02-03 23:27:00,
2013-02-04 00:42:00,30.9,24.0,29.96,North,360,0.0,0.0,74,0.00,,,0.00,0,weatherlink.com 1.10,2013-02-03 23:42:00,
2013-02-04 00:57:00,30.2,24.0,29.97,North,360,0.0,0.0,76,0.00,,,0.00,0,weatherlink.com 1.10,2013-02-03 23:57:00,
2013-02-04 01:12:00,29.7,23.0,29.96,North,360,0.0,0.0,77,0.00,,,0.00,0,weatherlink.com 1.10,2013-02-04 00:12:00,
2013-02-04 01:27:00,29.3,24.0,29.96,WSW,244,0.0,1.0,79,0.00,,,0.00,0,weatherlink.com 1.10,2013-02-04 00:27:00,
2013-02-04 01:42:00,29.3,24.0,29.96,WSW,244,0.0,1.0,80,0.00,,,0.00,0,weatherlink.com 1.10,2013-02-04 00:42:00,
2013-02-04 01:57:00,29.2,24.0,29.95,North,360,0.0,1.0,80,0.00,,,0.00,0,weatherlink.com 1.10,2013-02-04 00:57:00,
2013-02-04 02:12:00,29.2,24.0,29.95,WSW,246,0.0,1.0,81,0.00,,,0.00,0,weatherlink.com 1.10,2013-02-04 01:12:00,
2013-02-04 02:27:00,29.3,24.0,29.95,WSW,246,0.0,1.0,81,0.00,,,0.00,0,weatherlink.com 1.10,2013-02-04 01:27:00,
2013-02-04 02:42:00,29.6,25.0,29.95,WSW,246,0.0,1.0,82,0.00,,,0.00,0,weatherlink.com 1.10,2013-02-04 01:42:00,
2013-02-04 02:57:00,29.7,25.0,29.95,WSW,246,0.0,0.0,81,0.00,,,0.00,0,weatherlink.com 1.10,2013-02-04 01:57:00,
2013-02-04 03:12:00,29.8,25.0,29.95,WSW,246,0.0,1.0,82,0.00,,,0.00,0,weatherlink.com 1.10,2013-02-04 02:12:00,
2013-02-04 03:27:00,30.2,26.0,29.94,WSW,246,0.0,0.0,83,0.00,,,0.00,0,weatherlink.com 1.10,2013-02-04 02:27:00,
2013-02-04 03:42:00,30.6,26.0,29.95,WSW,247,0.0,1.0,83,0.00,,,0.00,0,weatherlink.com 1.10,2013-02-04 02:42:00,
2013-02-04 03:57:00,30.8,26.0,29.94,WSW,246,0.0,2.0,83,0.00,,,0.00,0,weatherlink.com 1.10,2013-02-04 02:57:00,
2013-02-04 04:12:00,31.1,27.0,29.94,North,360,0.0,1.0,83,0.00,,,0.00,0,weatherlink.com 1.10,2013-02-04 03:12:00,
2013-02-04 04:27:00,31.2,27.0,29.94,WSW,243,0.0,2.0,83,0.00,,,0.00,0,weatherlink.com 1.10,2013-02-04 03:27:00,
2013-02-04 04:42:00,31.6,27.0,29.94,WSW,246,0.0,4.0,83,0.00,,,0.00,0,weatherlink.com 1.10,2013-02-04 03:42:00,
2013-02-04 04:57:00,32.1,28.0,29.94,WSW,246,0.0,2.0,83,0.00,,,0.00,0,weatherlink.com 1.10,2013-02-04 03:57:00,
2013-02-04 05:12:00,33.2,29.0,29.94,WSW,247,1.0,2.0,83,0.00,,,0.00,0,weatherlink.com 1.10,2013-02-04 04:12:00,
2013-02-04 05:28:00,33.9,29.0,29.94,North,360,0.0,2.0,81,0.00,,,0.00,0,weatherlink.com 1.10,2013-02-04 04:28:00,
2013-02-04 05:43:00,33.9,28.0,29.94,North,360,0.0,0.0,80,0.00,,,0.00,0,weatherlink.com 1.10,2013-02-04 04:43:00,
2013-02-04 05:58:00,33.5,28.0,29.94,North,360,0.0,3.0,80,0.00,,,0.00,0,weatherlink.com 1.10,2013-02-04 04:58:00,
2013-02-04 06:13:00,33.7,28.0,29.94,WSW,246,0.0,2.0,79,0.00,,,0.00,0,weatherlink.com 1.10,2013-02-04 05:13:00,
2013-02-04 06:28:00,34.7,27.0,29.94,North,360,0.0,9.0,73,0.00,,,0.00,0,weatherlink.com 1.10,2013-02-04 05:28:00,
2013-02-04 06:43:00,35.4,27.0,29.94,North,360,0.0,7.0,70,0.00,,,0.00,0,weatherlink.com 1.10,2013-02-04 05:43:00,
2013-02-04 06:58:00,35.4,27.0,29.93,SW,232,0.0,5.0,70,0.00,,,0.00,0,weatherlink.com 1.10,2013-02-04 05:58:00,
2013-02-04 07:13:00,35.7,26.0,29.94,WSW,244,2.0,5.0,68,0.00,,,0.00,0,weatherlink.com 1.10,2013-02-04 06:13:00,
2013-02-04 07:28:00,35.8,26.0,29.94,WSW,245,1.0,5.0,68,0.00,,,0.00,11,weatherlink.com 1.10,2013-02-04 06:28:00,
2013-02-04 07:43:00,36.1,26.0,29.95,North,360,1.0,4.0,67,0.00,,,0.00,12,weatherlink.com 1.10,2013-02-04 06:43:00,
2013-02-04 07:58:00,36.0,26.0,29.94,SW,227,0.0,3.0,67,0.00,,,0.00,26,weatherlink.com 1.10,2013-02-04 06:58:00,
2013-02-04 08:13:00,36.0,26.0,29.94,WSW,245,0.0,2.0,68,0.00,,,0.00,35,weatherlink.com 1.10,2013-02-04 07:13:00,
2013-02-04 08:43:00,36.0,26.0,29.95,WSW,246,1.0,6.0,68,0.00,,,0.00,60,weatherlink.com 1.10,2013-02-04 07:43:00,
2013-02-04 09:13:00,37.0,27.0,29.95,SW,220,4.0,7.0,67,0.00,,,0.00,107,weatherlink.com 1.10,2013-02-04 08:13:00,
2013-02-04 09:28:00,41.2,29.0,29.94,North,360,1.0,10.0,63,0.00,,,0.00,151,weatherlink.com 1.10,2013-02-04 08:28:00,
2013-02-04 09:43:00,39.3,28.0,29.95,North,360,0.0,9.0,63,0.00,,,0.00,90,weatherlink.com 1.10,2013-02-04 08:43:00,
2013-02-04 09:58:00,38.2,28.0,29.95,WSW,239,6.0,7.0,66,0.00,,,0.00,74,weatherlink.com 1.10,2013-02-04 08:58:00,
2013-02-04 10:13:00,37.6,28.0,29.95,SW,215,2.0,7.0,69,0.00,,,0.00,54,weatherlink.com 1.10,2013-02-04 09:13:00,
2013-02-04 10:28:00,37.1,28.0,29.95,SW,227,0.0,9.0,71,0.00,,,0.00,77,weatherlink.com 1.10,2013-02-04 09:28:00,
2013-02-04 10:43:00,37.7,29.0,29.95,SW,221,1.0,7.0,72,0.00,,,0.00,165,weatherlink.com 1.10,2013-02-04 09:43:00,
2013-02-04 10:58:00,38.5,29.0,29.95,SW,232,4.0,8.0,70,0.00,,,0.00,146,weatherlink.com 1.10,2013-02-04 09:58:00,
2013-02-04 11:13:00,38.7,29.0,29.95,SW,225,0.0,9.0,67,0.00,,,0.00,121,weatherlink.com 1.10,2013-02-04 10:13:00,
2013-02-04 11:28:00,39.0,28.0,29.95,WSW,242,1.0,6.0,66,0.00,,,0.00,83,weatherlink.com 1.10,2013-02-04 10:28:00,
2013-02-04 11:43:00,38.5,28.0,29.94,SW,217,3.0,9.0,67,0.00,,,0.00,72,weatherlink.com 1.10,2013-02-04 10:43:00,
2013-02-04 11:58:00,38.2,28.0,29.94,SW,226,1.0,8.0,67,0.00,,,0.00,148,weatherlink.com 1.10,2013-02-04 10:58:00,
2013-02-04 12:13:00,38.9,28.0,29.94,SSW,213,2.0,7.0,65,0.00,,,0.00,169,weatherlink.com 1.10,2013-02-04 11:13:00,
2013-02-04 12:28:00,39.8,28.0,29.94,SW,225,4.0,9.0,63,0.00,,,0.00,156,weatherlink.com 1.10,2013-02-04 11:28:00,
2013-02-04 12:43:00,40.4,28.0,29.94,SSW,211,0.0,6.0,62,0.00,,,0.00,135,weatherlink.com 1.10,2013-02-04 11:43:00,
2013-02-04 12:58:00,39.9,29.0,29.93,SW,229,0.0,6.0,64,0.00,,,0.00,84,weatherlink.com 1.10,2013-02-04 11:58:00,
2013-02-04 13:13:00,39.7,29.0,29.93,SW,226,2.0,8.0,66,0.00,,,0.00,148,weatherlink.com 1.10,2013-02-04 12:13:00,
2013-02-04 13:28:00,40.0,30.0,29.93,SW,234,1.0,10.0,67,0.00,,,0.00,107,weatherlink.com 1.10,2013-02-04 12:28:00,
2013-02-04 13:43:00,40.3,30.0,29.92,SW,234,1.0,4.0,68,0.00,,,0.00,109,weatherlink.com 1.10,2013-02-04 12:43:00,
2013-02-04 13:58:00,40.3,31.0,29.92,WSW,242,0.0,8.0,69,0.00,,,0.00,134,weatherlink.com 1.10,2013-02-04 12:58:00,
2013-02-04 14:13:00,40.8,32.0,29.91,WSW,238,4.0,6.0,70,0.00,,,0.00,120,weatherlink.com 1.10,2013-02-04 13:13:00,
2013-02-04 14:28:00,40.9,32.0,29.91,WSW,238,0.0,4.0,71,0.00,,,0.00,135,weatherlink.com 1.10,2013-02-04 13:28:00,
2013-02-04 14:43:00,40.8,32.0,29.91,North,360,1.0,6.0,72,0.00,,,0.00,114,weatherlink.com 1.10,2013-02-04 13:43:00,
2013-02-04 14:58:00,40.8,33.0,29.91,SSW,213,0.0,8.0,73,0.00,,,0.00,91,weatherlink.com 1.10,2013-02-04 13:58:00,
2013-02-04 15:13:00,40.7,33.0,29.91,WSW,241,1.0,4.0,73,0.00,,,0.00,76,weatherlink.com 1.10,2013-02-04 14:13:00,
2013-02-04 15:28:00,40.5,33.0,29.91,SW,235,0.0,4.0,74,0.00,,,0.00,58,weatherlink.com 1.10,2013-02-04 14:28:00,
2013-02-04 15:43:00,40.4,33.0,29.92,SW,234,1.0,3.0,76,0.00,,,0.00,30,weatherlink.com 1.10,2013-02-04 14:43:00,
2013-02-04 15:58:00,39.9,34.0,29.91,SW,228,0.0,6.0,78,0.00,,,0.00,26,weatherlink.com 1.10,2013-02-04 14:58:00,
2013-02-04 16:14:00,39.5,34.0,29.91,North,360,2.0,5.0,79,0.00,,,0.00,16,weatherlink.com 1.10,2013-02-04 15:14:00,
2013-02-04 16:28:00,39.0,33.0,29.91,SW,231,1.0,5.0,80,0.00,,,0.00,11,weatherlink.com 1.10,2013-02-04 15:28:00,
2013-02-04 16:43:00,38.8,33.0,29.91,SW,229,1.0,6.0,80,0.00,,,0.00,0,weatherlink.com 1.10,2013-02-04 15:43:00,
2013-02-04 16:58:00,38.5,33.0,29.91,SSW,207,4.0,7.0,81,0.00,,,0.00,0,weatherlink.com 1.10,2013-02-04 15:58:00,
2013-02-04 17:13:00,38.1,33.0,29.91,North,360,4.0,6.0,82,0.00,,,0.00,0,weatherlink.com 1.10,2013-02-04 16:13:00,
2013-02-04 17:28:00,37.5,33.0,29.92,SW,223,3.0,6.0,82,0.00,,,0.00,0,weatherlink.com 1.10,2013-02-04 16:28:00,
2013-02-04 17:43:00,37.4,33.0,29.93,North,360,1.0,7.0,83,0.00,,,0.00,0,weatherlink.com 1.10,2013-02-04 16:43:00,
2013-02-04 17:58:00,36.9,32.0,29.93,WSW,240,1.0,6.0,83,0.00,,,0.00,0,weatherlink.com 1.10,2013-02-04 16:58:00,
2013-02-04 18:13:00,36.6,33.0,29.93,WSW,248,1.0,7.0,85,0.01,,,0.01,0,weatherlink.com 1.10,2013-02-04 17:13:00,
2013-02-04 18:44:00,36.4,33.0,29.93,North,360,1.0,3.0,87,0.01,,,0.01,0,weatherlink.com 1.10,2013-02-04 17:44:00,
2013-02-04 18:59:00,36.5,33.0,29.94,SW,223,0.0,3.0,87,0.02,,,0.02,0,weatherlink.com 1.10,2013-02-04 17:59:00,
2013-02-04 19:14:00,36.4,33.0,29.94,SW,226,0.0,3.0,88,0.02,,,0.03,0,weatherlink.com 1.10,2013-02-04 18:14:00,
2013-02-04 19:29:00,36.4,34.0,29.94,SW,227,1.0,3.0,89,0.03,,,0.04,0,weatherlink.com 1.10,2013-02-04 18:29:00,
2013-02-04 19:44:00,36.5,34.0,29.94,SW,226,0.0,3.0,89,0.04,,,0.05,0,weatherlink.com 1.10,2013-02-04 18:44:00,
2013-02-04 19:59:00,36.4,34.0,29.94,SW,225,2.0,10.0,89,0.03,,,0.05,0,weatherlink.com 1.10,2013-02-04 18:59:00,
2013-02-04 20:29:00,35.5,33.0,29.94,North,360,5.0,8.0,89,0.02,,,0.06,0,weatherlink.com 1.10,2013-02-04 19:29:00,
2013-02-04 20:44:00,35.4,33.0,29.94,SW,226,3.0,9.0,89,0.02,,,0.06,0,weatherlink.com 1.10,2013-02-04 19:44:00,
2013-02-04 20:59:00,35.6,33.0,29.94,WSW,237,1.0,7.0,89,0.02,,,0.06,0,weatherlink.com 1.10,2013-02-04 19:59:00,
2013-02-04 21:14:00,35.9,33.0,29.94,SW,229,2.0,6.0,90,0.03,,,0.08,0,weatherlink.com 1.10,2013-02-04 20:14:00,
2013-02-04 21:29:00,36.4,34.0,29.94,WSW,244,1.0,10.0,90,0.03,,,0.09,0,weatherlink.com 1.10,2013-02-04 20:29:00,
2013-02-04 21:44:00,36.2,33.0,29.93,WSW,250,1.0,6.0,89,0.02,,,0.09,0,weatherlink.com 1.10,2013-02-04 20:44:00,
2013-02-04 21:59:00,36.3,33.0,29.93,North,360,2.0,7.0,89,0.03,,,0.09,0,weatherlink.com 1.10,2013-02-04 20:59:00,
2013-02-04 22:14:00,36.5,34.0,29.94,North,360,5.0,9.0,89,0.02,,,0.09,0,weatherlink.com 1.10,2013-02-04 21:14:00,
2013-02-04 22:29:00,36.6,34.0,29.93,SW,217,3.0,10.0,89,0.01,,,0.09,0,weatherlink.com 1.10,2013-02-04 21:29:00,
2013-02-04 22:44:00,36.6,34.0,29.93,North,360,1.0,7.0,89,0.01,,,0.09,0,weatherlink.com 1.10,2013-02-04 21:44:00,
2013-02-04 22:59:00,36.6,33.0,29.93,SW,232,1.0,7.0,88,0.00,,,0.09,0,weatherlink.com 1.10,2013-02-04 21:59:00,
2013-02-04 23:14:00,36.8,34.0,29.93,SW,235,0.0,4.0,88,0.00,,,0.09,0,weatherlink.com 1.10,2013-02-04 22:14:00,
2013-02-04 23:29:00,37.0,34.0,29.94,North,360,1.0,4.0,88,0.00,,,0.09,0,weatherlink.com 1.10,2013-02-04 22:29:00,
2013-02-04 23:44:00,37.1,34.0,29.94,North,360,0.0,3.0,88,0.00,,,0.09,0,weatherlink.com 1.10,2013-02-04 22:44:00,
2013-02-04 23:59:00,37.1,33.0,29.94,North,360,1.0,8.0,86,0.00,,,0.09,0,weatherlink.com 1.10,2013-02-04 22:59:00,